Time;durP1;ratioP1;P1;durP2;ratioP2;P2;SDS_P1;SDS_P2;PMS_P1;PMS_P2;Temp;Humidity;BMP_temperature;BMP_pressure;BME280_temperature;BME280_humidity;BME280_pressure;Samples;Min_cycle;Max_cycle;Signal;HPM_P1;HPM_P2
2022/01/07 00:00:13;;;;;;;14.77;5.72;;;;;;;1.43;81.58;100807.09;4949165;28;20480;-80
2022/01/07 00:02:39;;;;;;;12.43;6.57;;;;;;;1.42;82.01;100809.94;4950785;28;20429;-81
2022/01/07 00:05:05;;;;;;;14.38;6.47;;;;;;;1.37;81.74;100809.66;4953635;28;20461;-80
2022/01/07 00:07:31;;;;;;;9.60;5.22;;;;;;;1.36;81.90;100798.13;4949796;28;20851;-80
2022/01/07 00:09:56;;;;;;;16.57;6.00;;;;;;;1.38;81.79;100798.78;4952748;28;20445;-80
2022/01/07 00:12:22;;;;;;;13.87;6.63;;;;;;;1.37;81.34;100805.13;4950363;28;20429;-80
2022/01/07 00:14:48;;;;;;;13.40;5.70;;;;;;;1.28;81.95;100798.19;4950383;28;20406;-80
2022/01/07 00:17:14;;;;;;;14.30;6.78;;;;;;;1.18;82.38;100796.75;4952141;29;20405;-80
2022/01/07 00:19:39;;;;;;;17.83;7.13;;;;;;;1.19;81.97;100799.22;4954004;29;20402;-80
2022/01/07 00:22:05;;;;;;;19.13;7.43;;;;;;;1.12;82.54;100795.59;4952348;28;20980;-80
2022/01/07 00:24:30;;;;;;;19.65;7.75;;;;;;;1.11;82.94;100790.44;4949617;28;20414;-80
2022/01/07 00:26:55;;;;;;;18.60;7.47;;;;;;;1.06;83.26;100785.63;4941125;28;20421;-80
2022/01/07 00:29:20;;;;;;;17.00;7.73;;;;;;;1.01;83.40;100782.66;4936445;29;20758;-80
2022/01/07 00:31:46;;;;;;;15.25;6.75;;;;;;;0.96;83.66;100783.19;4950247;28;20429;-80
2022/01/07 00:34:11;;;;;;;14.90;6.30;;;;;;;0.98;83.75;100772.34;4936213;29;20450;-81
2022/01/07 00:36:36;;;;;;;14.57;6.50;;;;;;;1.12;83.29;100765.44;4950520;28;20983;-80
2022/01/07 00:39:02;;;;;;;13.33;6.40;;;;;;;1.19;82.31;100769.88;4952583;28;20917;-81
2022/01/07 00:41:27;;;;;;;17.58;6.45;;;;;;;1.23;82.12;100773.00;4952480;28;20501;-80
2022/01/07 00:43:52;;;;;;;17.53;8.07;;;;;;;1.26;82.51;100765.50;4934298;29;20441;-81
2022/01/07 00:46:19;;;;;;;16.40;8.00;;;;;;;1.25;82.90;100769.16;4948243;28;20516;-80
2022/01/07 00:48:44;;;;;;;16.90;8.50;;;;;;;1.35;82.96;100771.63;4953589;29;20437;-81
2022/01/07 00:51:10;;;;;;;19.35;9.07;;;;;;;1.35;82.25;100763.63;4950071;28;20457;-80
2022/01/07 00:53:35;;;;;;;17.07;10.03;;;;;;;1.35;82.21;100763.63;4936310;29;20454;-81
2022/01/07 00:56:00;;;;;;;14.53;7.43;;;;;;;1.36;82.29;100759.91;4961296;28;20465;-80
2022/01/07 00:58:25;;;;;;;15.50;10.27;;;;;;;1.28;82.17;100759.97;4951709;28;20449;-81
2022/01/07 01:00:51;;;;;;;15.03;8.07;;;;;;;1.15;82.16;100751.72;4949918;28;21469;-81
2022/01/07 01:03:16;;;;;;;10.82;5.70;;;;;;;1.14;81.97;100752.72;4952158;28;20398;-78
2022/01/07 01:05:44;;;;;;;15.83;6.03;;;;;;;1.05;82.55;100755.44;4943511;28;20505;-80
2022/01/07 01:08:10;;;;;;;12.43;5.28;;;;;;;1.02;82.85;100758.47;4947416;28;20505;-81
2022/01/07 01:10:35;;;;;;;15.80;6.37;;;;;;;0.88;83.40;100761.06;4947839;28;20415;-80
2022/01/07 01:13:00;;;;;;;11.73;5.60;;;;;;;0.82;83.74;100761.75;4943273;28;20929;-80
2022/01/07 01:15:27;;;;;;;11.87;6.23;;;;;;;0.96;83.53;100763.66;4940719;29;20427;-80
2022/01/07 01:17:55;;;;;;;20.42;6.30;;;;;;;0.94;83.64;100760.34;4948860;28;20867;-80
2022/01/07 01:20:20;;;;;;;14.27;6.17;;;;;;;0.98;83.37;100764.34;4947163;28;20830;-80
2022/01/07 01:22:46;;;;;;;12.32;5.47;;;;;;;1.02;83.02;100763.78;4944766;29;20408;-80
2022/01/07 01:25:12;;;;;;;14.32;6.18;;;;;;;0.98;82.88;100759.00;4938886;28;20416;-80
2022/01/07 01:27:39;;;;;;;14.63;5.72;;;;;;;0.96;82.88;100764.50;4939750;28;20413;-80
2022/01/07 01:30:07;;;;;;;13.77;6.43;;;;;;;0.96;82.74;100758.31;4940632;28;20419;-80
2022/01/07 01:32:33;;;;;;;13.90;6.50;;;;;;;0.99;82.45;100757.97;4947611;28;20497;-80
2022/01/07 01:34:58;;;;;;;11.63;5.40;;;;;;;0.92;82.46;100760.50;4947420;28;20496;-80
2022/01/07 01:37:23;;;;;;;13.27;5.63;;;;;;;0.92;82.77;100757.03;4943218;28;20976;-78
2022/01/07 01:39:49;;;;;;;10.27;5.37;;;;;;;0.80;83.06;100756.59;4936203;28;20424;-80
2022/01/07 01:42:14;;;;;;;11.77;5.37;;;;;;;0.79;83.65;100756.78;4940906;28;20425;-80
2022/01/07 01:44:39;;;;;;;13.27;4.80;;;;;;;0.70;83.93;100755.13;4942802;28;20429;-80
2022/01/07 01:47:05;;;;;;;15.00;5.77;;;;;;;0.94;83.38;100755.84;4942371;28;20507;-81
2022/01/07 01:49:30;;;;;;;11.40;4.80;;;;;;;1.07;82.50;100751.78;4945760;28;20412;-80
2022/01/07 01:51:56;;;;;;;12.85;5.70;;;;;;;1.03;82.35;100748.63;4928755;29;20433;-81
2022/01/07 01:54:21;;;;;;;12.80;5.20;;;;;;;1.06;82.47;100753.59;4939046;28;20408;-81
2022/01/07 01:56:48;;;;;;;12.73;5.70;;;;;;;1.12;82.16;100750.22;4928501;28;21269;-80
2022/01/07 01:59:22;;;;;;;11.73;5.23;;;;;;;1.16;82.18;100751.53;4948733;28;20436;-80
2022/01/07 02:01:48;;;;;;;13.50;5.10;;;;;;;1.24;81.88;100748.81;4937191;28;20526;-80
2022/01/07 02:04:13;;;;;;;9.70;5.10;;;;;;;1.21;82.23;100746.50;4937468;28;20489;-80
2022/01/07 02:06:39;;;;;;;9.97;4.73;;;;;;;1.13;82.46;100740.38;4943506;28;20522;-79
2022/01/07 02:09:05;;;;;;;8.87;4.53;;;;;;;1.16;82.54;100742.69;4937000;29;20421;-80
2022/01/07 02:11:33;;;;;;;10.43;5.07;;;;;;;1.30;82.78;100741.94;4944791;28;20529;-80
2022/01/07 02:13:58;;;;;;;12.02;4.53;;;;;;;1.34;82.40;100749.44;4955078;28;20488;-80
2022/01/07 02:16:28;;;;;;;10.63;4.30;;;;;;;1.32;82.22;100738.06;4922981;29;20506;-80
2022/01/07 02:18:53;;;;;;;8.25;4.75;;;;;;;1.44;82.09;100734.00;4948799;28;20413;-80
2022/01/07 02:21:20;;;;;;;11.90;4.53;;;;;;;1.40;81.70;100740.69;4934215;29;20416;-79
2022/01/07 02:23:45;;;;;;;9.98;4.50;;;;;;;1.34;82.38;100746.75;4943708;28;20413;-80
2022/01/07 02:26:12;;;;;;;11.13;4.93;;;;;;;1.26;82.30;100738.78;4942538;28;20997;-81
2022/01/07 02:28:39;;;;;;;9.68;4.90;;;;;;;1.28;82.71;100730.63;4942172;28;20426;-79
2022/01/07 02:31:05;;;;;;;12.88;4.80;;;;;;;1.35;82.88;100739.59;4943441;28;20479;-80
2022/01/07 02:33:30;;;;;;;11.27;5.07;;;;;;;1.47;82.28;100732.81;4938627;28;20423;-80
2022/01/07 02:35:56;;;;;;;12.35;5.57;;;;;;;1.39;82.31;100738.19;4937187;28;20823;-80
2022/01/07 02:38:21;;;;;;;11.17;5.80;;;;;;;1.59;81.35;100720.66;4955685;29;20406;-80
2022/01/07 02:40:46;;;;;;;11.40;5.57;;;;;;;1.61;81.16;100723.16;4950114;28;20417;-80
2022/01/07 02:43:13;;;;;;;12.20;6.22;;;;;;;1.58;81.12;100726.22;4937252;29;20433;-79
2022/01/07 02:45:38;;;;;;;11.98;7.15;;;;;;;1.56;81.50;100724.53;4945431;28;20982;-80
2022/01/07 02:48:04;;;;;;;14.93;6.97;;;;;;;1.54;81.13;100707.88;4955674;29;20477;-80
2022/01/07 02:50:35;;;;;;;13.02;7.25;;;;;;;1.58;81.57;100715.53;4951894;28;20429;-79
2022/01/07 02:53:03;;;;;;;12.73;7.00;;;;;;;1.53;81.22;100714.22;4955333;29;20413;-80
2022/01/07 02:55:29;;;;;;;13.03;7.27;;;;;;;1.56;81.75;100719.19;4943988;28;20490;-80
2022/01/07 02:57:55;;;;;;;17.07;7.47;;;;;;;1.60;81.57;100702.81;4945023;28;20890;-80
2022/01/07 03:00:22;;;;;;;10.60;7.22;;;;;;;1.45;82.04;100713.44;4953052;28;20410;-80
2022/01/07 03:02:49;;;;;;;12.13;7.18;;;;;;;1.36;82.21;100714.53;4944419;28;20414;-80
2022/01/07 03:05:14;;;;;;;13.27;6.50;;;;;;;1.29;82.30;100709.06;4950564;28;20528;-79
2022/01/07 03:07:41;;;;;;;13.18;6.57;;;;;;;1.26;82.35;100704.09;4954086;28;20419;-79
2022/01/07 03:10:08;;;;;;;14.48;6.97;;;;;;;1.33;82.67;100707.69;4935570;29;20425;-79
2022/01/07 03:12:36;;;;;;;15.73;7.22;;;;;;;1.41;82.56;100715.66;4925893;29;20419;-80
2022/01/07 03:15:02;;;;;;;17.92;6.85;;;;;;;1.49;82.37;100709.41;4948443;28;20484;-79
2022/01/07 03:17:28;;;;;;;13.68;6.63;;;;;;;1.49;81.95;100698.72;4949993;28;20454;-80
2022/01/07 03:19:53;;;;;;;13.00;7.77;;;;;;;1.49;82.54;100702.22;4935342;28;20445;-79
2022/01/07 03:22:18;;;;;;;13.47;7.30;;;;;;;1.63;82.48;100702.44;4949703;28;20425;-80
2022/01/07 03:24:43;;;;;;;15.20;7.10;;;;;;;1.61;81.95;100705.31;4918505;28;20887;-79
2022/01/07 03:27:09;;;;;;;14.83;7.13;;;;;;;1.68;82.16;100708.88;4947538;28;20410;-79
2022/01/07 03:29:34;;;;;;;16.80;7.30;;;;;;;1.71;82.00;100711.22;4923918;29;20824;-80
2022/01/07 03:31:59;;;;;;;12.27;7.70;;;;;;;1.74;81.52;100713.53;4934323;29;20433;-80
2022/01/07 03:34:25;;;;;;;15.27;7.68;;;;;;;1.69;81.44;100704.38;4940237;28;20421;-80
2022/01/07 03:36:50;;;;;;;11.63;7.27;;;;;;;1.59;81.81;100696.63;4944077;28;20414;-80
2022/01/07 03:39:15;;;;;;;9.13;6.00;;;;;;;1.50;82.47;100687.03;4951632;28;20769;-80
2022/01/07 03:41:41;;;;;;;15.40;6.95;;;;;;;1.41;82.65;100691.63;4930510;29;20492;-80
2022/01/07 03:44:06;;;;;;;14.73;7.77;;;;;;;1.32;82.61;100689.19;4952855;28;20477;-80
2022/01/07 03:46:31;;;;;;;12.87;6.87;;;;;;;1.27;82.75;100686.22;4948491;28;20414;-80
2022/01/07 03:48:56;;;;;;;12.77;7.60;;;;;;;1.18;83.22;100685.47;4954529;29;20401;-80
2022/01/07 03:51:22;;;;;;;21.27;7.40;;;;;;;1.16;83.24;100682.13;4930182;29;20430;-80
2022/01/07 03:53:47;;;;;;;17.23;7.97;;;;;;;1.23;83.01;100682.25;4953248;28;20445;-80
2022/01/07 03:56:17;;;;;;;13.20;7.10;;;;;;;1.21;82.83;100671.78;4945233;28;20453;-80
2022/01/07 03:58:43;;;;;;;14.90;7.13;;;;;;;1.15;82.93;100666.31;4948210;28;20513;-80
2022/01/07 04:01:09;;;;;;;15.23;6.13;;;;;;;1.12;83.28;100675.50;4949572;28;20417;-80
2022/01/07 04:03:34;;;;;;;14.83;7.40;;;;;;;1.10;83.22;100674.00;4942107;28;20965;-80
2022/01/07 04:05:59;;;;;;;14.17;6.67;;;;;;;1.13;83.25;100677.16;4939601;28;20415;-80
2022/01/07 04:08:24;;;;;;;12.87;5.90;;;;;;;1.15;83.31;100680.50;4933099;28;20453;-79
2022/01/07 04:10:50;;;;;;;14.83;6.80;;;;;;;1.14;83.08;100678.00;4943696;28;20435;-80
2022/01/07 04:13:15;;;;;;;14.47;6.30;;;;;;;1.06;83.21;100676.22;4952029;28;20398;-80
2022/01/07 04:15:40;;;;;;;10.80;5.63;;;;;;;1.01;82.91;100676.75;4946488;28;20461;-80
2022/01/07 04:18:06;;;;;;;8.57;5.28;;;;;;;1.01;82.95;100666.09;4936405;28;20431;-79
2022/01/07 04:20:33;;;;;;;12.52;5.90;;;;;;;1.03;82.56;100672.06;4942922;28;20899;-80
2022/01/07 04:23:00;;;;;;;12.13;5.70;;;;;;;1.02;82.21;100667.72;4953336;29;20432;-80
2022/01/07 04:25:26;;;;;;;15.05;5.78;;;;;;;1.00;82.42;100664.41;4960650;28;20415;-80
2022/01/07 04:27:57;;;;;;;15.35;6.10;;;;;;;1.03;82.49;100672.06;4957549;28;20424;-80
2022/01/07 04:30:23;;;;;;;13.93;6.85;;;;;;;1.07;82.62;100671.69;4939906;28;20429;-80
2022/01/07 04:32:49;;;;;;;10.55;6.05;;;;;;;1.07;83.36;100671.69;4936482;28;20414;-79
2022/01/07 04:35:16;;;;;;;13.73;6.30;;;;;;;1.02;83.33;100670.38;4935159;28;20849;-80
2022/01/07 04:37:41;;;;;;;10.33;6.60;;;;;;;1.03;83.31;100664.06;4942977;28;20526;-79
2022/01/07 04:40:09;;;;;;;14.83;7.87;;;;;;;0.99;83.72;100665.41;4947510;28;20453;-80
2022/01/07 04:42:34;;;;;;;14.95;7.82;;;;;;;1.17;83.13;100658.94;4953576;29;20402;-80
2022/01/07 04:44:59;;;;;;;15.97;8.30;;;;;;;1.14;83.01;100669.97;4944852;28;20797;-80
2022/01/07 04:47:25;;;;;;;15.63;8.83;;;;;;;1.13;83.29;100657.63;4949991;28;20420;-80
2022/01/07 04:49:50;;;;;;;16.67;8.52;;;;;;;1.18;83.46;100663.28;4933747;28;20420;-79
2022/01/07 04:52:17;;;;;;;16.00;8.90;;;;;;;1.20;83.33;100659.41;4943044;28;20451;-80
2022/01/07 04:54:44;;;;;;;15.02;8.27;;;;;;;1.21;83.31;100663.75;4952086;28;20421;-79
2022/01/07 04:57:09;;;;;;;13.68;7.72;;;;;;;1.16;83.37;100665.28;4944378;28;20802;-80
2022/01/07 04:59:35;;;;;;;16.30;8.63;;;;;;;1.26;83.15;100669.38;4947418;28;20456;-79
2022/01/07 05:02:00;;;;;;;16.02;7.85;;;;;;;1.21;83.34;100665.59;4933941;29;20950;-80
2022/01/07 05:04:25;;;;;;;13.23;8.00;;;;;;;1.24;83.42;100666.06;4953433;29;20873;-79
2022/01/07 05:06:52;;;;;;;14.97;8.30;;;;;;;1.21;83.93;100658.41;4921529;28;20500;-80
2022/01/07 05:09:18;;;;;;;15.65;8.60;;;;;;;1.29;83.53;100654.84;4930455;29;20429;-80
2022/01/07 05:11:46;;;;;;;14.38;7.80;;;;;;;1.33;82.93;100653.47;4946638;28;20426;-80
2022/01/07 05:14:12;;;;;;;19.88;9.38;;;;;;;1.32;83.59;100651.81;4949729;28;20417;-80
2022/01/07 05:16:37;;;;;;;14.85;8.27;;;;;;;1.34;83.62;100647.13;4923063;29;20409;-80
2022/01/07 05:19:03;;;;;;;15.73;8.40;;;;;;;1.34;83.42;100641.78;4953325;29;20401;-80
2022/01/07 05:21:28;;;;;;;16.10;8.50;;;;;;;1.39;83.28;100637.56;4946673;28;20424;-80
2022/01/07 05:23:54;;;;;;;17.27;9.33;;;;;;;1.47;83.06;100628.66;4950885;28;20413;-80
2022/01/07 05:26:19;;;;;;;14.73;8.10;;;;;;;1.48;82.92;100616.97;4929614;29;20497;-80
2022/01/07 05:28:44;;;;;;;17.30;8.57;;;;;;;1.50;83.06;100622.94;4926933;28;20414;-80
2022/01/07 05:31:10;;;;;;;14.97;9.07;;;;;;;1.41;82.96;100618.69;4945440;28;20914;-79
2022/01/07 05:33:38;;;;;;;15.43;8.23;;;;;;;1.43;83.19;100622.00;4953680;28;20413;-80
2022/01/07 05:36:03;;;;;;;13.70;7.80;;;;;;;1.44;83.12;100619.16;4945206;28;20754;-80
2022/01/07 05:38:28;;;;;;;12.67;8.20;;;;;;;1.45;83.23;100625.31;4931132;28;20416;-80
2022/01/07 05:40:54;;;;;;;10.50;7.57;;;;;;;1.46;82.97;100616.28;4954701;28;20417;-80
2022/01/07 05:43:19;;;;;;;12.70;8.07;;;;;;;1.44;83.13;100604.97;4942717;28;20899;-79
2022/01/07 05:45:45;;;;;;;13.43;7.57;;;;;;;1.39;83.22;100608.19;4942131;28;20423;-80
2022/01/07 05:48:12;;;;;;;17.73;7.93;;;;;;;1.53;82.96;100609.22;4914757;28;20919;-79
2022/01/07 05:50:38;;;;;;;12.40;7.50;;;;;;;1.61;82.44;100613.66;4931231;28;20518;-79
2022/01/07 05:53:03;;;;;;;11.40;7.63;;;;;;;1.71;81.57;100619.56;4929445;28;20836;-80
2022/01/07 05:55:28;;;;;;;10.60;7.27;;;;;;;1.70;81.71;100613.38;4924810;28;20443;-80
2022/01/07 05:57:54;;;;;;;11.50;7.43;;;;;;;1.67;81.72;100607.56;4930101;28;20475;-79
2022/01/07 06:00:19;;;;;;;13.95;7.43;;;;;;;1.63;82.18;100604.44;4930895;28;20450;-80
2022/01/07 06:02:45;;;;;;;12.83;7.90;;;;;;;1.71;81.37;100601.69;4951005;28;20427;-80
2022/01/07 06:05:11;;;;;;;13.25;7.65;;;;;;;1.67;81.81;100603.06;4955260;28;20852;-80
2022/01/07 06:07:36;;;;;;;8.88;7.60;;;;;;;1.79;81.46;100600.75;4953541;28;20460;-79
2022/01/07 06:10:05;;;;;;;13.40;7.00;;;;;;;1.74;81.07;100595.16;4954348;28;20507;-80
2022/01/07 06:12:30;;;;;;;11.05;6.80;;;;;;;1.75;81.48;100594.09;4955842;28;20432;-80
2022/01/07 06:14:56;;;;;;;11.33;6.70;;;;;;;1.77;81.14;100586.75;4957145;28;20768;-80
2022/01/07 06:17:21;;;;;;;11.80;6.47;;;;;;;1.76;80.83;100587.75;4957815;28;20419;-80
2022/01/07 06:19:46;;;;;;;12.57;6.53;;;;;;;1.76;80.55;100585.94;4960788;28;20914;-80
2022/01/07 06:22:11;;;;;;;10.53;6.37;;;;;;;1.78;80.29;100586.56;4945586;28;20428;-79
2022/01/07 06:24:37;;;;;;;6.17;5.10;;;;;;;1.79;80.56;100587.38;4950696;28;20411;-78
2022/01/07 06:27:03;;;;;;;11.50;6.20;;;;;;;1.76;80.34;100588.59;4972085;28;20424;-78
2022/01/07 06:29:28;;;;;;;9.43;5.80;;;;;;;1.74;80.14;100587.97;4966550;28;20424;-79
2022/01/07 06:31:53;;;;;;;13.33;7.73;;;;;;;1.75;80.51;100586.94;4967355;28;20428;-78
2022/01/07 06:34:20;;;;;;;10.87;7.20;;;;;;;1.79;80.19;100585.56;4953061;28;20416;-79
2022/01/07 06:36:47;;;;;;;11.10;6.53;;;;;;;1.74;80.48;100577.28;4965363;28;20408;-79
2022/01/07 06:39:13;;;;;;;9.02;5.90;;;;;;;1.73;79.97;100585.47;4972709;28;20879;-80
2022/01/07 06:41:38;;;;;;;7.70;5.85;;;;;;;1.69;79.93;100573.47;4952487;28;20412;-79
2022/01/07 06:44:04;;;;;;;9.27;5.77;;;;;;;1.68;79.89;100575.31;4961789;28;20408;-80
2022/01/07 06:46:29;;;;;;;9.90;5.53;;;;;;;1.64;79.92;100576.72;4960641;28;20418;-80
2022/01/07 06:48:54;;;;;;;11.40;6.20;;;;;;;1.66;79.61;100574.69;4962838;28;20408;-79
2022/01/07 06:51:19;;;;;;;11.47;5.73;;;;;;;1.69;79.18;100579.66;4968926;28;20424;-79
2022/01/07 06:53:45;;;;;;;9.68;6.75;;;;;;;1.70;79.05;100572.47;4943989;28;20420;-80
2022/01/07 06:56:10;;;;;;;8.20;5.30;;;;;;;1.72;78.86;100571.28;4967943;28;20432;-80
2022/01/07 06:58:35;;;;;;;6.07;4.60;;;;;;;1.73;79.04;100569.44;4963177;28;20424;-80
2022/01/07 07:01:01;;;;;;;7.25;4.90;;;;;;;1.80;78.50;100560.50;4960967;28;20451;-80
2022/01/07 07:03:26;;;;;;;5.67;4.90;;;;;;;1.78;79.42;100559.03;4960582;28;20982;-80
2022/01/07 07:05:51;;;;;;;7.00;4.90;;;;;;;1.77;78.80;100555.53;4962030;28;20455;-80
2022/01/07 07:08:16;;;;;;;8.83;5.00;;;;;;;1.84;78.50;100553.78;4947837;28;20445;-80
2022/01/07 07:10:42;;;;;;;13.37;5.30;;;;;;;1.89;78.60;100555.88;4937186;28;20412;-80
2022/01/07 07:13:07;;;;;;;7.50;4.80;;;;;;;1.93;78.42;100552.66;4961403;28;20412;-80
2022/01/07 07:15:33;;;;;;;6.32;4.70;;;;;;;2.00;77.99;100547.38;4961513;28;20774;-80
2022/01/07 07:17:58;;;;;;;7.17;5.40;;;;;;;2.07;77.56;100556.31;4961939;28;20470;-80
2022/01/07 07:20:23;;;;;;;6.70;4.93;;;;;;;2.03;77.82;100545.16;4942802;28;20427;-81
2022/01/07 07:22:49;;;;;;;8.33;4.47;;;;;;;2.13;77.09;100547.53;4971514;28;20891;-81
2022/01/07 07:25:14;;;;;;;7.13;4.07;;;;;;;2.14;77.21;100553.72;4958225;28;20474;-80
2022/01/07 07:27:41;;;;;;;8.15;4.50;;;;;;;2.11;76.81;100548.75;4955990;28;20421;-80
2022/01/07 07:30:08;;;;;;;6.97;4.57;;;;;;;2.17;76.98;100553.34;4946155;28;20416;-79
2022/01/07 07:32:35;;;;;;;7.40;4.37;;;;;;;2.21;76.60;100558.09;4944189;28;20431;-82
2022/01/07 07:35:04;;;;;;;4.97;4.47;;;;;;;2.21;76.22;100554.59;4964026;28;20501;-82
2022/01/07 07:37:30;;;;;;;6.28;4.15;;;;;;;2.18;76.92;100554.97;4945043;28;20461;-81
2022/01/07 07:39:55;;;;;;;6.97;4.30;;;;;;;2.26;76.04;100542.34;4961323;28;20420;-80
2022/01/07 07:42:21;;;;;;;5.97;4.17;;;;;;;2.26;76.59;100547.69;4962247;28;20515;-80
2022/01/07 07:44:47;;;;;;;7.53;4.37;;;;;;;2.25;76.24;100548.69;4952183;28;20883;-79
2022/01/07 07:47:12;;;;;;;7.70;3.93;;;;;;;2.27;76.09;100546.69;4962397;28;20418;-80
2022/01/07 07:49:37;;;;;;;11.63;5.67;;;;;;;2.31;76.07;100534.56;4959127;28;20419;-81
2022/01/07 07:52:04;;;;;;;5.00;4.10;;;;;;;2.27;76.64;100536.00;4960110;28;20424;-81
2022/01/07 07:54:29;;;;;;;4.43;3.20;;;;;;;2.25;76.22;100542.53;4944272;28;20812;-80
2022/01/07 07:56:57;;;;;;;7.53;4.13;;;;;;;2.26;76.08;100536.16;4961744;28;20446;-80
2022/01/07 07:59:22;;;;;;;8.52;4.80;;;;;;;2.30;75.84;100535.59;4963133;28;20483;-80
2022/01/07 08:01:48;;;;;;;7.30;3.63;;;;;;;2.24;76.36;100541.69;4942699;28;20974;-78
2022/01/07 08:04:15;;;;;;;7.07;3.80;;;;;;;2.37;75.15;100533.81;4961719;28;20420;-77
2022/01/07 08:06:40;;;;;;;5.70;4.03;;;;;;;2.46;74.86;100534.53;4967710;28;20412;-78
2022/01/07 08:09:06;;;;;;;9.07;4.07;;;;;;;2.45;74.57;100528.34;4958106;28;20928;-78
2022/01/07 08:11:37;;;;;;;6.87;4.13;;;;;;;2.44;74.85;100529.34;4961686;28;20451;-78
2022/01/07 08:16:47;;;;;;;6.30;4.18;;;;;;;2.36;75.35;100523.31;4962354;28;20507;-78
2022/01/07 08:19:12;;;;;;;8.25;4.25;;;;;;;2.46;74.27;100522.00;4941374;28;20722;-79
2022/01/07 08:21:37;;;;;;;7.27;4.07;;;;;;;2.50;74.51;100522.44;4959722;28;20416;-79
2022/01/07 08:24:03;;;;;;;6.47;3.67;;;;;;;2.57;73.64;100520.63;4955586;28;20409;-78
2022/01/07 08:26:28;;;;;;;4.88;3.42;;;;;;;2.49;74.50;100510.91;4960909;28;20420;-78
2022/01/07 08:29:01;;;;;;;7.30;4.17;;;;;;;2.48;74.91;100519.94;4972029;28;20420;-78
2022/01/07 08:34:53;;;;;;;7.00;3.47;;;;;;;2.53;74.64;100511.34;4960642;28;20462;-77
2022/01/07 08:36:58;;;;;;;6.53;3.38;;;;;;;2.59;73.75;100510.59;4947915;28;20432;-78
2022/01/07 08:39:25;;;;;;;6.75;3.95;;;;;;;2.67;73.63;100510.44;4957190;28;20420;-79
2022/01/07 08:41:50;;;;;;;10.50;4.35;;;;;;;2.73;73.39;100493.63;4959081;28;20986;-79
2022/01/07 08:44:16;;;;;;;7.47;4.33;;;;;;;2.73;72.55;100496.31;4958058;28;20424;-78
2022/01/07 08:46:43;;;;;;;6.40;3.87;;;;;;;2.82;73.11;100494.31;4955257;28;20478;-79
2022/01/07 08:49:08;;;;;;;5.33;3.83;;;;;;;2.76;73.64;100498.59;4960338;28;20966;-78
2022/01/07 08:51:34;;;;;;;6.63;3.13;;;;;;;2.70;73.17;100506.56;4959626;28;20509;-80
2022/01/07 08:54:00;;;;;;;5.40;3.22;;;;;;;2.84;72.51;100497.59;4960513;28;20523;-79
2022/01/07 08:56:26;;;;;;;7.95;3.33;;;;;;;2.80;73.26;100483.78;4957803;28;20926;-78
2022/01/07 08:58:55;;;;;;;4.10;3.30;;;;;;;2.82;73.04;100492.47;4958498;28;20420;-79
2022/01/07 09:01:22;;;;;;;4.88;3.28;;;;;;;2.74;73.21;100494.44;4959472;28;20484;-79
2022/01/07 09:03:48;;;;;;;5.32;3.28;;;;;;;2.73;73.45;100498.16;4958842;28;20794;-79
2022/01/07 09:06:13;;;;;;;7.63;5.22;;;;;;;2.78;73.18;100495.72;4958742;28;20514;-79
2022/01/07 09:08:39;;;;;;;7.00;4.20;;;;;;;2.79;73.08;100502.72;4962363;28;20501;-79
2022/01/07 09:11:04;;;;;;;4.93;3.87;;;;;;;2.78;73.88;100504.56;4958380;28;20515;-77
2022/01/07 09:13:30;;;;;;;5.23;3.63;;;;;;;2.84;73.19;100498.44;4959282;28;20455;-79
2022/01/07 09:15:57;;;;;;;6.37;3.03;;;;;;;2.85;72.96;100501.94;4956102;28;20412;-79
2022/01/07 09:18:23;;;;;;;6.22;2.97;;;;;;;2.95;71.53;100505.13;4954582;28;20419;-81
2022/01/07 09:20:49;;;;;;;6.72;3.58;;;;;;;2.98;72.50;100510.91;4955857;28;20440;-81
2022/01/07 09:23:15;;;;;;;5.20;3.13;;;;;;;3.09;72.35;100506.88;4960429;28;20927;-80
2022/01/07 09:25:41;;;;;;;5.05;3.00;;;;;;;3.13;71.34;100510.78;4941113;28;20436;-81
2022/01/07 09:28:07;;;;;;;7.40;3.70;;;;;;;3.08;72.10;100513.25;4968237;28;20459;-81
2022/01/07 09:30:34;;;;;;;4.68;3.38;;;;;;;3.04;72.31;100510.13;4980618;28;20898;-80
2022/01/07 09:32:59;;;;;;;5.00;3.45;;;;;;;2.94;73.15;100516.84;4947190;28;20899;-80
2022/01/07 09:35:25;;;;;;;5.40;3.33;;;;;;;2.83;74.26;100514.72;4961158;28;20424;-80
2022/01/07 09:37:50;;;;;;;7.43;3.90;;;;;;;2.68;75.71;100528.16;4967941;28;20420;-81
2022/01/07 09:40:17;;;;;;;5.85;3.75;;;;;;;2.62;76.70;100523.56;4960780;28;20416;-81
2022/01/07 09:43:03;;;;;;;5.88;4.00;;;;;;;2.57;77.79;100529.50;4958154;28;21025;-80
2022/01/07 09:45:31;;;;;;;4.13;3.60;;;;;;;2.59;78.03;100527.47;4957626;28;20428;-81
2022/01/07 09:48:01;;;;;;;4.65;3.72;;;;;;;2.65;78.68;100528.53;4942125;28;20783;-83
2022/01/07 09:50:28;;;;;;;5.15;4.50;;;;;;;2.55;78.95;100531.53;4955174;28;20420;-81
2022/01/07 09:52:53;;;;;;;5.07;3.95;;;;;;;2.58;79.78;100519.63;4971194;28;20435;-80
2022/01/07 09:55:19;;;;;;;8.63;4.57;;;;;;;2.50;80.18;100522.44;4958810;28;20518;-82
2022/01/07 09:57:45;;;;;;;7.80;4.73;;;;;;;2.68;79.61;100514.78;4961175;28;20823;-82
2022/01/07 10:00:11;;;;;;;6.67;4.70;;;;;;;2.66;80.00;100507.97;4963262;28;20456;-81
2022/01/07 10:02:36;;;;;;;8.65;5.00;;;;;;;2.48;81.01;100503.06;4958598;28;20826;-81
2022/01/07 10:05:18;;;;;;;7.50;5.13;;;;;;;2.53;81.44;100500.66;4955047;28;20507;-81
2022/01/07 10:07:44;;;;;;;8.38;4.95;;;;;;;2.49;81.07;100505.56;4956879;28;20431;-81
2022/01/07 10:10:14;;;;;;;7.53;4.53;;;;;;;2.63;80.52;100498.47;4942647;28;20420;-81
2022/01/07 10:13:00;;;;;;;10.27;5.38;;;;;;;2.54;81.16;100499.63;4955889;28;20459;-81
2022/01/07 10:15:39;;;;;;;8.57;4.70;;;;;;;2.56;81.46;100502.94;4965865;28;20864;-81
2022/01/07 10:18:15;;;;;;;9.10;4.88;;;;;;;2.53;81.96;100489.94;4963021;28;20495;-82
2022/01/07 10:20:46;;;;;;;7.82;4.35;;;;;;;2.72;80.68;100496.50;4972551;28;20506;-81
2022/01/07 10:23:14;;;;;;;8.93;5.07;;;;;;;2.72;80.86;100486.63;4945665;28;20412;-81
2022/01/07 10:25:43;;;;;;;8.60;4.55;;;;;;;2.76;81.09;100481.72;4962229;28;20899;-86
2022/01/07 10:28:17;;;;;;;6.85;4.35;;;;;;;3.01;80.34;100477.56;4950771;28;20925;-80
2022/01/07 10:30:51;;;;;;;8.98;4.90;;;;;;;3.25;80.11;100482.47;4961248;28;20502;-81
2022/01/07 10:33:25;;;;;;;5.38;4.25;;;;;;;3.34;78.80;100475.94;4945857;28;20411;-81
2022/01/07 10:35:56;;;;;;;7.47;4.82;;;;;;;3.26;79.58;100478.75;4940434;28;20881;-82
2022/01/07 10:38:27;;;;;;;6.97;4.03;;;;;;;3.19;79.61;100485.94;4961114;28;20412;-82
2022/01/07 10:40:59;;;;;;;4.57;4.00;;;;;;;3.32;78.94;100471.81;4959734;28;20432;-81
2022/01/07 10:43:32;;;;;;;7.40;4.95;;;;;;;3.29;79.31;100470.34;4961775;28;20433;-81
2022/01/07 10:46:19;;;;;;;6.22;4.10;;;;;;;3.31;79.90;100460.25;4962520;28;20537;-83
2022/01/07 10:48:51;;;;;;;10.05;5.07;;;;;;;3.05;80.29;100457.41;4963852;28;20403;-81
2022/01/07 10:51:23;;;;;;;10.50;4.75;;;;;;;3.13;79.99;100465.28;4961507;28;20519;-81
2022/01/07 10:53:58;;;;;;;6.68;4.70;;;;;;;3.15;80.31;100449.88;4964088;28;20412;-81
2022/01/07 10:56:32;;;;;;;6.80;4.70;;;;;;;3.22;80.05;100448.06;4963418;28;20534;-81
2022/01/07 10:59:08;;;;;;;8.40;4.20;;;;;;;3.01;80.61;100456.97;4961216;28;20537;-82
2022/01/07 11:01:55;;;;;;;6.30;4.53;;;;;;;3.04;80.29;100453.06;4961783;28;20412;-81
2022/01/07 11:04:26;;;;;;;11.20;5.22;;;;;;;3.30;79.68;100452.41;4966220;28;20474;-82
2022/01/07 11:06:53;;;;;;;7.55;4.25;;;;;;;3.43;78.98;100447.09;4966981;28;20423;-82
2022/01/07 11:09:19;;;;;;;6.80;4.40;;;;;;;3.65;77.88;100441.44;4973001;28;20475;-83
2022/01/07 11:11:50;;;;;;;6.13;4.30;;;;;;;3.77;77.13;100439.03;4961435;28;20511;-82
2022/01/07 11:14:18;;;;;;;6.70;4.13;;;;;;;3.80;77.20;100427.06;4961025;28;20432;-82
2022/01/07 11:16:44;;;;;;;8.37;4.73;;;;;;;3.97;75.94;100431.03;4963018;28;20427;-82
2022/01/07 11:19:10;;;;;;;8.47;4.40;;;;;;;4.06;75.74;100432.50;4961337;28;20432;-84
2022/01/07 11:21:37;;;;;;;7.15;4.68;;;;;;;4.03;75.54;100420.31;4959997;28;20415;-82
2022/01/07 11:24:37;;;;;;;6.70;4.22;;;;;;;3.71;76.76;100429.09;4963036;28;20420;-82
2022/01/07 11:27:03;;;;;;;7.32;3.70;;;;;;;3.70;77.11;100430.13;4956138;28;20408;-82
2022/01/07 11:29:29;;;;;;;6.60;4.20;;;;;;;3.76;76.37;100431.16;4976612;28;20419;-82
2022/01/07 11:32:14;;;;;;;8.07;5.07;;;;;;;3.86;76.34;100426.25;4949021;28;20423;-82